sensor_id;sensor_type;location;lat;lon;timestamp;pressure;altitude;pressure_sealevel;temperature;humidity
44697;BME280;57264;47.480;19.354;2023-04-26T00:00:42;98417.31;;;6.17;84.45
44697;BME280;57264;47.480;19.354;2023-04-26T00:03:08;98422.53;;;6.17;84.18
44697;BME280;57264;47.480;19.354;2023-04-26T00:05:34;98421.34;;;6.26;84.23
44697;BME280;57264;47.480;19.354;2023-04-26T00:08:01;98422.56;;;6.36;83.95
44697;BME280;57264;47.480;19.354;2023-04-26T00:10:28;98430.38;;;6.30;84.14
44697;BME280;57264;47.480;19.354;2023-04-26T00:12:54;98422.94;;;6.27;84.38
44697;BME280;57264;47.480;19.354;2023-04-26T00:15:19;98427.16;;;6.28;85.07
44697;BME280;57264;47.480;19.354;2023-04-26T00:17:45;98430.16;;;6.25;84.86
44697;BME280;57264;47.480;19.354;2023-04-26T00:20:11;98438.78;;;6.25;85.14
44697;BME280;57264;47.480;19.354;2023-04-26T00:22:37;98450.41;;;6.29;85.18
44697;BME280;57264;47.480;19.354;2023-04-26T00:25:04;98443.19;;;6.25;85.12
44697;BME280;57264;47.480;19.354;2023-04-26T00:27:29;98445.78;;;6.25;85.47
44697;BME280;57264;47.480;19.354;2023-04-26T00:29:55;98445.03;;;6.37;84.85
44697;BME280;57264;47.480;19.354;2023-04-26T00:32:20;98451.63;;;6.33;85.10
44697;BME280;57264;47.480;19.354;2023-04-26T00:34:46;98449.25;;;6.51;83.74
44697;BME280;57264;47.480;19.354;2023-04-26T00:37:12;98445.66;;;6.46;83.84
44697;BME280;57264;47.480;19.354;2023-04-26T00:39:37;98444.44;;;6.48;84.51
44697;BME280;57264;47.480;19.354;2023-04-26T00:42:03;98454.28;;;6.53;84.08
44697;BME280;57264;47.480;19.354;2023-04-26T00:44:29;98447.66;;;6.57;83.28
44697;BME280;57264;47.480;19.354;2023-04-26T00:46:54;98446.88;;;6.76;82.66
44697;BME280;57264;47.480;19.354;2023-04-26T00:49:24;98451.28;;;6.89;81.85
44697;BME280;57264;47.480;19.354;2023-04-26T00:51:53;98451.28;;;6.69;82.62
44697;BME280;57264;47.480;19.354;2023-04-26T00:54:19;98451.06;;;6.84;82.53
44697;BME280;57264;47.480;19.354;2023-04-26T00:56:46;98451.09;;;6.97;82.09
44697;BME280;57264;47.480;19.354;2023-04-26T00:59:11;98445.84;;;6.84;82.89
44697;BME280;57264;47.480;19.354;2023-04-26T01:01:57;98457.72;;;6.93;82.45
44697;BME280;57264;47.480;19.354;2023-04-26T01:04:23;98451.50;;;6.94;82.34
44697;BME280;57264;47.480;19.354;2023-04-26T01:06:51;98453.28;;;6.93;82.70
44697;BME280;57264;47.480;19.354;2023-04-26T01:09:17;98461.72;;;7.09;81.75
44697;BME280;57264;47.480;19.354;2023-04-26T01:11:43;98461.91;;;7.07;81.90
44697;BME280;57264;47.480;19.354;2023-04-26T01:14:09;98462.69;;;6.94;82.88
44697;BME280;57264;47.480;19.354;2023-04-26T01:16:35;98457.91;;;6.91;82.18
44697;BME280;57264;47.480;19.354;2023-04-26T01:19:13;98460.09;;;6.94;82.78
44697;BME280;57264;47.480;19.354;2023-04-26T01:21:39;98459.09;;;6.82;83.53
44697;BME280;57264;47.480;19.354;2023-04-26T01:24:06;98461.50;;;6.77;82.97
44697;BME280;57264;47.480;19.354;2023-04-26T01:26:33;98458.47;;;6.67;83.57
44697;BME280;57264;47.480;19.354;2023-04-26T01:28:59;98459.47;;;6.66;83.80
44697;BME280;57264;47.480;19.354;2023-04-26T01:31:24;98462.69;;;6.55;83.76
44697;BME280;57264;47.480;19.354;2023-04-26T01:33:50;98462.28;;;6.58;83.01
44697;BME280;57264;47.480;19.354;2023-04-26T01:36:16;98470.50;;;6.55;82.68
44697;BME280;57264;47.480;19.354;2023-04-26T01:38:41;98474.91;;;6.48;83.07
44697;BME280;57264;47.480;19.354;2023-04-26T01:41:07;98475.50;;;6.50;83.23
44697;BME280;57264;47.480;19.354;2023-04-26T01:43:32;98478.69;;;6.39;82.93
44697;BME280;57264;47.480;19.354;2023-04-26T01:45:58;98477.91;;;6.45;83.16
44697;BME280;57264;47.480;19.354;2023-04-26T01:48:23;98485.31;;;6.35;83.95
44697;BME280;57264;47.480;19.354;2023-04-26T01:50:49;98484.31;;;6.36;82.88
44697;BME280;57264;47.480;19.354;2023-04-26T01:53:14;98487.72;;;6.36;83.53
44697;BME280;57264;47.480;19.354;2023-04-26T01:55:40;98487.09;;;6.28;83.13
44697;BME280;57264;47.480;19.354;2023-04-26T01:58:06;98491.50;;;6.27;82.71
44697;BME280;57264;47.480;19.354;2023-04-26T02:00:32;98483.66;;;6.21;83.64
44697;BME280;57264;47.480;19.354;2023-04-26T02:02:58;98490.06;;;6.18;83.24
44697;BME280;57264;47.480;19.354;2023-04-26T02:05:23;98491.03;;;6.10;83.00
44697;BME280;57264;47.480;19.354;2023-04-26T02:07:49;98488.25;;;6.12;83.43
44697;BME280;57264;47.480;19.354;2023-04-26T02:10:15;98494.22;;;6.06;83.84
44697;BME280;57264;47.480;19.354;2023-04-26T02:12:41;98495.81;;;6.00;83.83
44697;BME280;57264;47.480;19.354;2023-04-26T02:15:07;98493.78;;;5.96;84.22
44697;BME280;57264;47.480;19.354;2023-04-26T02:17:32;98494.59;;;5.96;83.36
44697;BME280;57264;47.480;19.354;2023-04-26T02:19:58;98500.56;;;5.90;83.11
44697;BME280;57264;47.480;19.354;2023-04-26T02:22:24;98498.97;;;5.89;83.27
44697;BME280;57264;47.480;19.354;2023-04-26T02:24:50;98503.38;;;5.89;83.71
44697;BME280;57264;47.480;19.354;2023-04-26T02:27:17;98504.19;;;5.89;83.26
44697;BME280;57264;47.480;19.354;2023-04-26T02:29:42;98500.34;;;5.85;83.03
44697;BME280;57264;47.480;19.354;2023-04-26T02:32:08;98505.50;;;5.79;83.39
44697;BME280;57264;47.480;19.354;2023-04-26T02:34:35;98501.25;;;5.71;84.11
44697;BME280;57264;47.480;19.354;2023-04-26T02:37:00;98508.31;;;5.77;83.81
44697;BME280;57264;47.480;19.354;2023-04-26T02:39:26;98504.09;;;5.76;83.87
44697;BME280;57264;47.480;19.354;2023-04-26T02:41:52;98502.88;;;5.79;82.97
44697;BME280;57264;47.480;19.354;2023-04-26T02:44:17;98508.31;;;5.77;82.58
44697;BME280;57264;47.480;19.354;2023-04-26T02:46:42;98493.25;;;5.73;82.79
44697;BME280;57264;47.480;19.354;2023-04-26T02:49:08;98502.03;;;5.65;83.60
44697;BME280;57264;47.480;19.354;2023-04-26T02:51:34;98502.38;;;5.62;83.52
44697;BME280;57264;47.480;19.354;2023-04-26T02:53:59;98507.19;;;5.58;84.11
44697;BME280;57264;47.480;19.354;2023-04-26T02:56:25;98512.19;;;5.53;83.30
44697;BME280;57264;47.480;19.354;2023-04-26T02:58:51;98505.91;;;5.48;83.94
44697;BME280;57264;47.480;19.354;2023-04-26T03:01:16;98511.72;;;5.50;83.66
44697;BME280;57264;47.480;19.354;2023-04-26T03:03:43;98517.06;;;5.42;84.28
44697;BME280;57264;47.480;19.354;2023-04-26T03:06:08;98527.63;;;5.34;84.22
44697;BME280;57264;47.480;19.354;2023-04-26T03:08:34;98537.44;;;5.32;84.20
44697;BME280;57264;47.480;19.354;2023-04-26T03:11:01;98539.50;;;5.43;84.03
44697;BME280;57264;47.480;19.354;2023-04-26T03:13:27;98550.91;;;5.42;83.25
44697;BME280;57264;47.480;19.354;2023-04-26T03:15:52;98544.47;;;5.38;84.10
44697;BME280;57264;47.480;19.354;2023-04-26T03:18:18;98550.72;;;5.43;83.04
44697;BME280;57264;47.480;19.354;2023-04-26T03:20:46;98557.06;;;5.34;83.22
44697;BME280;57264;47.480;19.354;2023-04-26T03:23:12;98567.69;;;5.33;83.25
44697;BME280;57264;47.480;19.354;2023-04-26T03:25:37;98569.25;;;5.34;83.38
44697;BME280;57264;47.480;19.354;2023-04-26T03:28:03;98572.88;;;5.33;83.52
44697;BME280;57264;47.480;19.354;2023-04-26T03:30:29;98575.78;;;5.23;83.88
44697;BME280;57264;47.480;19.354;2023-04-26T03:32:54;98565.72;;;5.13;83.90
44697;BME280;57264;47.480;19.354;2023-04-26T03:35:20;98572.59;;;5.21;83.69
44697;BME280;57264;47.480;19.354;2023-04-26T03:37:46;98575.31;;;5.13;84.20
44697;BME280;57264;47.480;19.354;2023-04-26T03:40:11;98582.91;;;5.14;84.52
44697;BME280;57264;47.480;19.354;2023-04-26T03:42:37;98582.09;;;5.14;83.90
44697;BME280;57264;47.480;19.354;2023-04-26T03:45:03;98591.59;;;5.22;83.58
44697;BME280;57264;47.480;19.354;2023-04-26T03:47:29;98586.59;;;5.20;83.54
44697;BME280;57264;47.480;19.354;2023-04-26T03:49:55;98603.44;;;5.24;83.61
44697;BME280;57264;47.480;19.354;2023-04-26T03:52:21;98602.50;;;5.32;82.45
44697;BME280;57264;47.480;19.354;2023-04-26T03:54:47;98602.50;;;5.32;83.05
44697;BME280;57264;47.480;19.354;2023-04-26T03:57:12;98602.34;;;5.40;82.22
44697;BME280;57264;47.480;19.354;2023-04-26T03:59:38;98592.69;;;5.34;82.32
44697;BME280;57264;47.480;19.354;2023-04-26T04:02:03;98606.06;;;5.31;82.56
44697;BME280;57264;47.480;19.354;2023-04-26T04:04:29;98608.31;;;5.34;82.11
44697;BME280;57264;47.480;19.354;2023-04-26T04:06:54;98611.97;;;5.39;81.60
44697;BME280;57264;47.480;19.354;2023-04-26T04:09:21;98614.44;;;5.47;81.91
44697;BME280;57264;47.480;19.354;2023-04-26T04:11:47;98611.41;;;5.44;81.45
44697;BME280;57264;47.480;19.354;2023-04-26T04:14:12;98618.34;;;5.37;81.25
44697;BME280;57264;47.480;19.354;2023-04-26T04:16:38;98620.88;;;5.51;81.28
44697;BME280;57264;47.480;19.354;2023-04-26T04:19:03;98628.13;;;5.56;81.20
44697;BME280;57264;47.480;19.354;2023-04-26T04:21:29;98624.47;;;5.50;81.45
44697;BME280;57264;47.480;19.354;2023-04-26T04:23:56;98625.03;;;5.46;82.17
44697;BME280;57264;47.480;19.354;2023-04-26T04:26:21;98631.47;;;5.50;81.20
44697;BME280;57264;47.480;19.354;2023-04-26T04:28:47;98632.09;;;5.52;80.91
44697;BME280;57264;47.480;19.354;2023-04-26T04:31:13;98635.13;;;5.55;81.27
44697;BME280;57264;47.480;19.354;2023-04-26T04:33:39;98633.56;;;5.61;81.18
44697;BME280;57264;47.480;19.354;2023-04-26T04:36:05;98638.31;;;5.79;80.02
44697;BME280;57264;47.480;19.354;2023-04-26T04:38:31;98635.53;;;6.08;78.62
44697;BME280;57264;47.480;19.354;2023-04-26T04:40:57;98639.63;;;6.24;78.84
44697;BME280;57264;47.480;19.354;2023-04-26T04:43:23;98632.72;;;6.44;77.92
44697;BME280;57264;47.480;19.354;2023-04-26T04:45:48;98630.44;;;6.75;75.58
44697;BME280;57264;47.480;19.354;2023-04-26T04:48:14;98630.47;;;6.88;74.90
44697;BME280;57264;47.480;19.354;2023-04-26T04:50:40;98637.72;;;6.93;75.05
44697;BME280;57264;47.480;19.354;2023-04-26T04:53:09;98639.16;;;7.02;74.59
44697;BME280;57264;47.480;19.354;2023-04-26T04:55:34;98630.53;;;7.15;74.55
44697;BME280;57264;47.480;19.354;2023-04-26T04:58:02;98626.97;;;7.68;70.36
44697;BME280;57264;47.480;19.354;2023-04-26T05:00:28;98634.78;;;7.88;67.19
44697;BME280;57264;47.480;19.354;2023-04-26T05:02:54;98635.97;;;8.05;65.67
44697;BME280;57264;47.480;19.354;2023-04-26T05:05:21;98636.97;;;8.04;67.49
44697;BME280;57264;47.480;19.354;2023-04-26T05:07:47;98641.97;;;8.32;66.29
44697;BME280;57264;47.480;19.354;2023-04-26T05:10:12;98643.56;;;8.39;66.30
44697;BME280;57264;47.480;19.354;2023-04-26T05:12:38;98648.72;;;8.59;64.00
44697;BME280;57264;47.480;19.354;2023-04-26T05:15:04;98653.97;;;9.04;61.52
44697;BME280;57264;47.480;19.354;2023-04-26T05:17:31;98653.09;;;9.16;61.16
44697;BME280;57264;47.480;19.354;2023-04-26T05:19:57;98658.75;;;9.13;61.01
44697;BME280;57264;47.480;19.354;2023-04-26T05:22:22;98654.19;;;9.02;60.90
44697;BME280;57264;47.480;19.354;2023-04-26T05:24:49;98660.31;;;9.21;60.39
44697;BME280;57264;47.480;19.354;2023-04-26T05:27:15;98670.50;;;9.35;60.80
44697;BME280;57264;47.480;19.354;2023-04-26T05:29:40;98668.78;;;9.16;62.38
44697;BME280;57264;47.480;19.354;2023-04-26T05:32:06;98670.34;;;9.30;61.73
44697;BME280;57264;47.480;19.354;2023-04-26T05:34:31;98668.03;;;9.09;63.48
44697;BME280;57264;47.480;19.354;2023-04-26T05:36:57;98670.53;;;9.60;61.68
44697;BME280;57264;47.480;19.354;2023-04-26T05:39:23;98676.72;;;9.41;61.99
44697;BME280;57264;47.480;19.354;2023-04-26T05:41:48;98676.94;;;9.64;61.86
44697;BME280;57264;47.480;19.354;2023-04-26T05:44:14;98678.59;;;10.15;60.12
44697;BME280;57264;47.480;19.354;2023-04-26T05:46:41;98670.53;;;11.19;55.87
44697;BME280;57264;47.480;19.354;2023-04-26T05:49:06;98664.19;;;11.38;54.75
44697;BME280;57264;47.480;19.354;2023-04-26T05:51:36;98662.56;;;12.48;52.76
44697;BME280;57264;47.480;19.354;2023-04-26T05:54:06;98668.22;;;13.08;50.03
44697;BME280;57264;47.480;19.354;2023-04-26T05:56:33;98681.94;;;12.19;52.74
44697;BME280;57264;47.480;19.354;2023-04-26T05:58:58;98682.56;;;10.78;56.01
44697;BME280;57264;47.480;19.354;2023-04-26T06:01:24;98685.59;;;10.39;56.72
44697;BME280;57264;47.480;19.354;2023-04-26T06:03:50;98687.34;;;10.27;57.71
44697;BME280;57264;47.480;19.354;2023-04-26T06:06:15;98699.88;;;10.25;57.92
44697;BME280;57264;47.480;19.354;2023-04-26T06:08:41;98694.69;;;10.18;57.70
44697;BME280;57264;47.480;19.354;2023-04-26T06:11:07;98700.84;;;10.30;56.21
44697;BME280;57264;47.480;19.354;2023-04-26T06:13:33;98699.53;;;10.58;54.99
44697;BME280;57264;47.480;19.354;2023-04-26T06:15:58;98707.38;;;10.21;54.91
44697;BME280;57264;47.480;19.354;2023-04-26T06:18:24;98702.66;;;10.48;55.43
44697;BME280;57264;47.480;19.354;2023-04-26T06:20:50;98693.34;;;10.70;53.24
44697;BME280;57264;47.480;19.354;2023-04-26T06:23:16;98691.81;;;10.63;54.18
44697;BME280;57264;47.480;19.354;2023-04-26T06:25:44;98698.25;;;10.67;54.35
44697;BME280;57264;47.480;19.354;2023-04-26T06:28:11;98695.31;;;10.75;53.31
44697;BME280;57264;47.480;19.354;2023-04-26T06:30:37;98699.72;;;11.11;52.17
44697;BME280;57264;47.480;19.354;2023-04-26T06:33:03;98696.16;;;11.35;51.77
44697;BME280;57264;47.480;19.354;2023-04-26T06:35:28;98702.72;;;11.14;52.52
44697;BME280;57264;47.480;19.354;2023-04-26T06:37:54;98698.56;;;11.37;51.39
44697;BME280;57264;47.480;19.354;2023-04-26T06:40:20;98704.38;;;11.09;49.56
44697;BME280;57264;47.480;19.354;2023-04-26T06:42:46;98700.94;;;11.26;51.03
44697;BME280;57264;47.480;19.354;2023-04-26T06:45:11;98702.81;;;11.49;49.82
44697;BME280;57264;47.480;19.354;2023-04-26T06:47:37;98698.50;;;11.55;46.92
44697;BME280;57264;47.480;19.354;2023-04-26T06:50:03;98698.72;;;11.53;46.05
44697;BME280;57264;47.480;19.354;2023-04-26T06:52:29;98693.16;;;11.61;47.16
44697;BME280;57264;47.480;19.354;2023-04-26T06:54:55;98704.25;;;11.34;47.36
44697;BME280;57264;47.480;19.354;2023-04-26T06:57:21;98697.22;;;11.16;46.92
44697;BME280;57264;47.480;19.354;2023-04-26T06:59:46;98687.88;;;11.50;49.35
44697;BME280;57264;47.480;19.354;2023-04-26T07:02:12;98698.88;;;11.70;47.05
44697;BME280;57264;47.480;19.354;2023-04-26T07:04:37;98694.69;;;11.81;46.06
44697;BME280;57264;47.480;19.354;2023-04-26T07:07:03;98698.88;;;11.70;43.76
44697;BME280;57264;47.480;19.354;2023-04-26T07:09:29;98697.47;;;11.97;43.35
44697;BME280;57264;47.480;19.354;2023-04-26T07:11:54;98692.19;;;11.86;42.06
44697;BME280;57264;47.480;19.354;2023-04-26T07:14:20;98692.22;;;12.20;43.61
44697;BME280;57264;47.480;19.354;2023-04-26T07:16:45;98693.69;;;11.93;44.19
44697;BME280;57264;47.480;19.354;2023-04-26T07:19:11;98703.31;;;12.11;43.21
44697;BME280;57264;47.480;19.354;2023-04-26T07:21:36;98718.63;;;12.02;41.17
44697;BME280;57264;47.480;19.354;2023-04-26T07:24:02;98714.94;;;11.92;41.65
44697;BME280;57264;47.480;19.354;2023-04-26T07:26:28;98715.09;;;12.08;40.87
44697;BME280;57264;47.480;19.354;2023-04-26T07:28:54;98722.16;;;11.85;39.11
44697;BME280;57264;47.480;19.354;2023-04-26T07:31:20;98727.75;;;11.47;40.51
44697;BME280;57264;47.480;19.354;2023-04-26T07:33:45;98743.84;;;11.20;40.95
44697;BME280;57264;47.480;19.354;2023-04-26T07:36:11;98742.91;;;10.97;42.14
44697;BME280;57264;47.480;19.354;2023-04-26T07:38:36;98755.88;;;10.55;42.29
44697;BME280;57264;47.480;19.354;2023-04-26T07:41:02;98745.78;;;10.34;43.15
44697;BME280;57264;47.480;19.354;2023-04-26T07:43:29;98746.69;;;10.64;44.33
44697;BME280;57264;47.480;19.354;2023-04-26T07:45:59;98746.78;;;10.76;42.73
44697;BME280;57264;47.480;19.354;2023-04-26T07:48:26;98741.53;;;10.94;43.85
44697;BME280;57264;47.480;19.354;2023-04-26T07:50:52;98764.88;;;10.66;43.29
44697;BME280;57264;47.480;19.354;2023-04-26T07:53:18;98767.78;;;10.58;45.47
44697;BME280;57264;47.480;19.354;2023-04-26T07:55:43;98772.78;;;10.41;44.66
44697;BME280;57264;47.480;19.354;2023-04-26T07:58:09;98777.47;;;10.57;42.74
44697;BME280;57264;47.480;19.354;2023-04-26T08:00:39;98778.19;;;10.46;43.43
44697;BME280;57264;47.480;19.354;2023-04-26T08:03:04;98767.94;;;10.63;44.98
44697;BME280;57264;47.480;19.354;2023-04-26T08:05:30;98774.19;;;10.80;44.74
44697;BME280;57264;47.480;19.354;2023-04-26T08:07:56;98779.75;;;10.90;44.17
44697;BME280;57264;47.480;19.354;2023-04-26T08:10:21;98776.44;;;10.58;44.55
44697;BME280;57264;47.480;19.354;2023-04-26T08:12:47;98773.47;;;10.73;44.92
44697;BME280;57264;47.480;19.354;2023-04-26T08:15:12;98788.13;;;10.62;42.99
44697;BME280;57264;47.480;19.354;2023-04-26T08:17:38;98784.97;;;10.72;44.18
44697;BME280;57264;47.480;19.354;2023-04-26T08:20:04;98784.28;;;10.83;43.36
44697;BME280;57264;47.480;19.354;2023-04-26T08:22:30;98773.56;;;10.85;44.35
44697;BME280;57264;47.480;19.354;2023-04-26T08:24:55;98806.94;;;10.77;44.08
44697;BME280;57264;47.480;19.354;2023-04-26T08:27:21;98788.84;;;10.88;45.43
44697;BME280;57264;47.480;19.354;2023-04-26T08:29:47;98788.28;;;11.04;45.71
44697;BME280;57264;47.480;19.354;2023-04-26T08:32:13;98796.53;;;10.89;44.11
44697;BME280;57264;47.480;19.354;2023-04-26T08:34:38;98791.78;;;10.98;44.72
44697;BME280;57264;47.480;19.354;2023-04-26T08:37:06;98787.78;;;11.13;46.08
44697;BME280;57264;47.480;19.354;2023-04-26T08:39:32;98809.88;;;10.88;43.46
44697;BME280;57264;47.480;19.354;2023-04-26T08:42:04;98795.72;;;10.70;44.64
44697;BME280;57264;47.480;19.354;2023-04-26T08:44:32;98803.31;;;10.78;43.59
44697;BME280;57264;47.480;19.354;2023-04-26T08:49:44;98795.75;;;11.07;44.08
44697;BME280;57264;47.480;19.354;2023-04-26T08:52:13;98792.53;;;10.87;44.20
44697;BME280;57264;47.480;19.354;2023-04-26T08:54:40;98810.03;;;11.11;44.33
44697;BME280;57264;47.480;19.354;2023-04-26T08:57:06;98795.59;;;11.02;44.37
44697;BME280;57264;47.480;19.354;2023-04-26T08:59:48;98806.94;;;11.32;43.49
44697;BME280;57264;47.480;19.354;2023-04-26T09:02:17;98795.84;;;11.48;43.33
44697;BME280;57264;47.480;19.354;2023-04-26T09:04:46;98801.09;;;11.48;42.47
44697;BME280;57264;47.480;19.354;2023-04-26T09:07:21;98802.38;;;11.76;41.86
44697;BME280;57264;47.480;19.354;2023-04-26T09:09:48;98811.91;;;11.58;43.34
44697;BME280;57264;47.480;19.354;2023-04-26T09:12:19;98838.41;;;11.39;40.74
44697;BME280;57264;47.480;19.354;2023-04-26T09:14:46;98807.84;;;11.26;42.41
44697;BME280;57264;47.480;19.354;2023-04-26T09:17:33;98813.66;;;11.28;43.26
44697;BME280;57264;47.480;19.354;2023-04-26T09:20:05;98815.94;;;11.06;41.78
44697;BME280;57264;47.480;19.354;2023-04-26T09:22:41;98820.59;;;11.04;41.76
44697;BME280;57264;47.480;19.354;2023-04-26T09:25:07;98819.00;;;11.03;40.98
44697;BME280;57264;47.480;19.354;2023-04-26T09:27:37;98818.81;;;11.23;42.14
44697;BME280;57264;47.480;19.354;2023-04-26T09:30:16;98822.94;;;11.31;42.25
44697;BME280;57264;47.480;19.354;2023-04-26T09:38:00;98816.97;;;11.05;41.97
44697;BME280;57264;47.480;19.354;2023-04-26T09:40:29;98802.50;;;11.33;42.44
44697;BME280;57264;47.480;19.354;2023-04-26T09:42:56;98801.84;;;11.55;42.42
44697;BME280;57264;47.480;19.354;2023-04-26T09:45:22;98800.94;;;11.61;42.67
44697;BME280;57264;47.480;19.354;2023-04-26T09:47:48;98804.78;;;11.77;42.58
44697;BME280;57264;47.480;19.354;2023-04-26T09:50:24;98794.66;;;11.62;40.58
44697;BME280;57264;47.480;19.354;2023-04-26T09:52:50;98799.03;;;11.98;43.78
44697;BME280;57264;47.480;19.354;2023-04-26T09:55:25;98789.56;;;12.09;40.83
44697;BME280;57264;47.480;19.354;2023-04-26T09:57:51;98786.34;;;11.95;40.30
44697;BME280;57264;47.480;19.354;2023-04-26T10:00:17;98790.44;;;11.91;41.94
44697;BME280;57264;47.480;19.354;2023-04-26T10:02:44;98798.34;;;12.03;41.06
44697;BME280;57264;47.480;19.354;2023-04-26T10:05:11;98790.97;;;11.82;40.79
44697;BME280;57264;47.480;19.354;2023-04-26T10:07:36;98785.44;;;11.71;41.10
44697;BME280;57264;47.480;19.354;2023-04-26T10:10:03;98797.00;;;12.12;41.43
44697;BME280;57264;47.480;19.354;2023-04-26T10:12:29;98780.84;;;12.08;39.87
44697;BME280;57264;47.480;19.354;2023-04-26T10:14:55;98774.75;;;11.96;39.52
44697;BME280;57264;47.480;19.354;2023-04-26T10:17:21;98787.53;;;11.81;38.99
44697;BME280;57264;47.480;19.354;2023-04-26T10:19:51;98826.88;;;11.88;36.99
44697;BME280;57264;47.480;19.354;2023-04-26T10:22:23;98795.59;;;11.98;41.99
44697;BME280;57264;47.480;19.354;2023-04-26T10:24:51;98793.78;;;12.10;39.52
44697;BME280;57264;47.480;19.354;2023-04-26T10:30:11;98800.34;;;12.19;37.64
44697;BME280;57264;47.480;19.354;2023-04-26T10:35:26;98810.75;;;11.84;39.49
44697;BME280;57264;47.480;19.354;2023-04-26T10:40:30;98796.63;;;12.08;40.99
44697;BME280;57264;47.480;19.354;2023-04-26T10:43:31;98806.13;;;11.98;40.75
44697;BME280;57264;47.480;19.354;2023-04-26T10:49:14;98799.84;;;12.10;38.51
44697;BME280;57264;47.480;19.354;2023-04-26T10:51:40;98802.16;;;12.07;38.31
44697;BME280;57264;47.480;19.354;2023-04-26T10:54:06;98806.34;;;12.08;39.25
44697;BME280;57264;47.480;19.354;2023-04-26T11:01:33;98805.16;;;12.34;38.90
44697;BME280;57264;47.480;19.354;2023-04-26T11:04:00;98810.84;;;12.07;37.87
44697;BME280;57264;47.480;19.354;2023-04-26T11:06:51;98810.34;;;11.99;39.54
44697;BME280;57264;47.480;19.354;2023-04-26T11:09:49;98802.91;;;11.96;39.41
44697;BME280;57264;47.480;19.354;2023-04-26T11:12:16;98793.44;;;12.06;40.10
44697;BME280;57264;47.480;19.354;2023-04-26T11:14:42;98790.72;;;12.25;38.66
44697;BME280;57264;47.480;19.354;2023-04-26T11:17:09;98798.06;;;12.46;38.70
44697;BME280;57264;47.480;19.354;2023-04-26T11:19:35;98796.25;;;12.70;37.42
44697;BME280;57264;47.480;19.354;2023-04-26T11:22:02;98789.84;;;12.54;37.99
44697;BME280;57264;47.480;19.354;2023-04-26T11:24:29;98793.69;;;12.40;37.24
44697;BME280;57264;47.480;19.354;2023-04-26T11:26:55;98790.56;;;12.08;38.14
44697;BME280;57264;47.480;19.354;2023-04-26T11:29:23;98820.44;;;12.13;39.38
44697;BME280;57264;47.480;19.354;2023-04-26T11:31:56;98818.50;;;12.09;37.10
44697;BME280;57264;47.480;19.354;2023-04-26T11:34:35;98794.28;;;12.18;37.09
44697;BME280;57264;47.480;19.354;2023-04-26T11:37:04;98813.88;;;12.46;37.18
44697;BME280;57264;47.480;19.354;2023-04-26T11:39:33;98808.59;;;12.69;35.02
44697;BME280;57264;47.480;19.354;2023-04-26T11:44:49;98806.19;;;12.91;35.43
44697;BME280;57264;47.480;19.354;2023-04-26T11:47:16;98814.34;;;12.78;33.86
44697;BME280;57264;47.480;19.354;2023-04-26T11:49:42;98800.25;;;12.60;35.47
44697;BME280;57264;47.480;19.354;2023-04-26T11:52:09;98829.06;;;12.32;35.48
44697;BME280;57264;47.480;19.354;2023-04-26T11:54:35;98818.66;;;12.26;34.63
44697;BME280;57264;47.480;19.354;2023-04-26T11:57:15;98819.81;;;12.00;35.81
44697;BME280;57264;47.480;19.354;2023-04-26T11:59:41;98829.69;;;12.04;36.51
44697;BME280;57264;47.480;19.354;2023-04-26T12:02:07;98815.66;;;12.10;36.31
44697;BME280;57264;47.480;19.354;2023-04-26T12:04:37;98807.81;;;12.45;36.95
44697;BME280;57264;47.480;19.354;2023-04-26T12:07:04;98816.28;;;12.47;35.91
44697;BME280;57264;47.480;19.354;2023-04-26T12:09:31;98808.81;;;12.56;36.68
44697;BME280;57264;47.480;19.354;2023-04-26T12:12:01;98813.78;;;12.87;33.93
44697;BME280;57264;47.480;19.354;2023-04-26T12:14:37;98815.81;;;12.85;34.95
44697;BME280;57264;47.480;19.354;2023-04-26T12:17:04;98807.94;;;12.74;36.46
44697;BME280;57264;47.480;19.354;2023-04-26T12:19:38;98812.16;;;12.75;36.45
44697;BME280;57264;47.480;19.354;2023-04-26T12:22:08;98811.31;;;13.21;37.76
44697;BME280;57264;47.480;19.354;2023-04-26T12:24:37;98813.16;;;13.08;37.17
44697;BME280;57264;47.480;19.354;2023-04-26T12:27:04;98821.91;;;12.74;34.68
44697;BME280;57264;47.480;19.354;2023-04-26T12:29:31;98827.25;;;12.44;37.12
44697;BME280;57264;47.480;19.354;2023-04-26T12:31:57;98814.88;;;12.33;37.32
44697;BME280;57264;47.480;19.354;2023-04-26T12:34:23;98815.78;;;12.15;36.69
44697;BME280;57264;47.480;19.354;2023-04-26T12:36:49;98827.50;;;12.01;36.94
44697;BME280;57264;47.480;19.354;2023-04-26T12:39:15;98823.00;;;12.32;35.57
44697;BME280;57264;47.480;19.354;2023-04-26T12:41:41;98831.84;;;12.49;34.18
44697;BME280;57264;47.480;19.354;2023-04-26T12:44:09;98825.31;;;12.98;33.73
44697;BME280;57264;47.480;19.354;2023-04-26T12:46:35;98823.69;;;13.08;32.37
44697;BME280;57264;47.480;19.354;2023-04-26T12:49:01;98822.88;;;13.08;32.62
44697;BME280;57264;47.480;19.354;2023-04-26T12:51:27;98817.41;;;13.09;33.59
44697;BME280;57264;47.480;19.354;2023-04-26T12:53:53;98819.72;;;12.83;33.72
44697;BME280;57264;47.480;19.354;2023-04-26T12:56:19;98817.53;;;13.15;34.35
44697;BME280;57264;47.480;19.354;2023-04-26T12:58:47;98821.41;;;13.00;35.85
44697;BME280;57264;47.480;19.354;2023-04-26T13:01:13;98826.47;;;13.02;35.89
44697;BME280;57264;47.480;19.354;2023-04-26T13:03:39;98834.13;;;12.68;34.87
44697;BME280;57264;47.480;19.354;2023-04-26T13:06:05;98840.06;;;12.41;35.81
44697;BME280;57264;47.480;19.354;2023-04-26T13:08:30;98844.31;;;12.00;36.78
44697;BME280;57264;47.480;19.354;2023-04-26T13:10:56;98847.91;;;12.17;36.71
44697;BME280;57264;47.480;19.354;2023-04-26T13:13:22;98848.66;;;11.95;36.34
44697;BME280;57264;47.480;19.354;2023-04-26T13:15:48;98850.16;;;12.02;35.55
44697;BME280;57264;47.480;19.354;2023-04-26T13:18:13;98851.06;;;12.08;35.60
44697;BME280;57264;47.480;19.354;2023-04-26T13:20:40;98848.66;;;11.95;35.66